createdAt,value
2022-09-30T00:00:27.169Z,99.99
2022-09-30T00:01:27.156Z,99.99
2022-09-30T00:02:27.122Z,99.99
2022-09-30T00:03:27.208Z,99.99
2022-09-30T00:04:27.137Z,99.99
2022-09-30T00:05:27.150Z,99.99
2022-09-30T00:06:27.172Z,99.99
2022-09-30T00:07:27.166Z,99.99
2022-09-30T00:08:27.168Z,99.99
2022-09-30T00:09:27.195Z,99.99
2022-09-30T00:10:27.185Z,99.99
2022-09-30T00:11:27.192Z,99.99
2022-09-30T00:12:27.197Z,99.99
2022-09-30T00:13:27.252Z,99.99
2022-09-30T00:14:27.215Z,99.99
2022-09-30T00:15:27.226Z,99.99
2022-09-30T00:16:27.293Z,99.99
2022-09-30T00:17:27.235Z,99.99
2022-09-30T00:18:27.249Z,99.99
2022-09-30T00:19:27.253Z,99.99
2022-09-30T00:20:27.356Z,99.99
2022-09-30T00:21:27.267Z,99.99
2022-09-30T00:22:27.275Z,99.99
2022-09-30T00:23:27.284Z,99.99
2022-09-30T00:24:27.287Z,99.99
2022-09-30T00:25:27.293Z,99.99
2022-09-30T00:26:27.303Z,99.99
2022-09-30T00:27:27.320Z,99.99
2022-09-30T00:28:27.323Z,99.99
2022-09-30T00:29:27.364Z,99.99
2022-09-30T00:30:27.396Z,99.99
2022-09-30T00:31:27.418Z,99.99
2022-09-30T00:32:27.349Z,99.99
2022-09-30T00:33:27.356Z,99.99
2022-09-30T00:34:27.365Z,99.99
2022-09-30T00:35:27.376Z,99.99
2022-09-30T00:36:27.377Z,99.99
2022-09-30T00:37:27.382Z,99.99
2022-09-30T00:38:27.401Z,99.29
2022-09-30T00:39:27.448Z,98.54
2022-09-30T00:40:27.404Z,97.21
2022-09-30T00:41:27.417Z,96.55
2022-09-30T00:42:27.432Z,95.03
2022-09-30T00:43:27.431Z,93.89
2022-09-30T00:44:27.437Z,92.28
2022-09-30T00:45:27.474Z,91.71
2022-09-30T00:46:27.502Z,90.67
2022-09-30T00:47:27.463Z,90.29
2022-09-30T00:48:27.464Z,89.25
2022-09-30T00:49:27.474Z,88.49
2022-09-30T00:50:27.481Z,88.02
2022-09-30T00:51:27.494Z,87.64
2022-09-30T00:52:27.498Z,86.50
2022-09-30T00:53:27.509Z,85.46
2022-09-30T00:54:27.512Z,84.51
2022-09-30T00:55:27.519Z,84.23
2022-09-30T00:56:27.529Z,84.13
2022-09-30T00:57:27.533Z,84.80
2022-09-30T00:58:27.547Z,84.80
2022-09-30T00:59:27.561Z,85.08
2022-09-30T01:00:27.603Z,84.51
2022-09-30T01:01:27.597Z,84.42
2022-09-30T01:02:27.639Z,84.13
2022-09-30T01:03:27.579Z,83.56
2022-09-30T01:04:27.582Z,83.85
2022-09-30T01:05:27.610Z,83.85
2022-09-30T01:06:27.597Z,84.13
2022-09-30T01:07:27.609Z,83.85
2022-09-30T01:08:27.615Z,84.13
2022-09-30T01:09:27.685Z,84.23
2022-09-30T01:10:27.634Z,83.85
2022-09-30T01:11:27.640Z,83.18
2022-09-30T01:12:27.645Z,83.37
2022-09-30T01:13:27.654Z,82.43
2022-09-30T01:14:27.663Z,82.14
2022-09-30T01:15:27.668Z,81.57
2022-09-30T01:16:27.720Z,81.01
2022-09-30T01:17:27.709Z,80.44
2022-09-30T01:18:27.696Z,80.06
2022-09-30T01:19:27.701Z,79.77
2022-09-30T01:20:27.704Z,79.11
2022-09-30T01:21:27.714Z,79.30
2022-09-30T01:22:27.724Z,79.30
2022-09-30T01:23:27.827Z,79.58
2022-09-30T01:24:27.735Z,78.83
2022-09-30T01:25:27.739Z,78.92
2022-09-30T01:26:27.749Z,79.11
2022-09-30T01:27:27.760Z,77.84
2022-09-30T01:28:27.766Z,77.59
2022-09-30T01:29:27.770Z,77.22
2022-09-30T01:30:27.780Z,76.84
2022-09-30T01:31:27.848Z,77.12
2022-09-30T01:32:27.790Z,76.93
2022-09-30T01:33:27.819Z,76.55
2022-09-30T01:34:27.812Z,76.74
2022-09-30T01:35:27.815Z,76.46
2022-09-30T01:36:27.821Z,76.17
2022-09-30T01:37:27.828Z,76.17
2022-09-30T01:38:27.838Z,76.36
2022-09-30T01:39:27.845Z,76.36
2022-09-30T01:40:27.854Z,76.46
2022-09-30T01:41:27.860Z,76.36
2022-09-30T01:42:27.875Z,76.46
2022-09-30T01:43:27.876Z,76.55
2022-09-30T01:44:27.892Z,76.36
2022-09-30T01:45:27.888Z,76.74
2022-09-30T01:46:27.937Z,76.93
2022-09-30T01:47:27.902Z,77.78
2022-09-30T01:48:27.907Z,78.54
2022-09-30T01:49:27.938Z,79.49
2022-09-30T01:50:28.026Z,80.44
2022-09-30T01:51:27.929Z,81.48
2022-09-30T01:52:27.938Z,81.76
2022-09-30T01:53:27.942Z,82.33
2022-09-30T01:54:27.955Z,83.18
2022-09-30T01:55:27.960Z,83.94
2022-09-30T01:56:27.971Z,84.89
2022-09-30T01:57:27.971Z,87.64
2022-09-30T01:58:27.985Z,89.53
2022-09-30T01:59:27.991Z,89.72
2022-09-30T02:00:28.054Z,89.44
2022-09-30T02:01:28.005Z,87.83
2022-09-30T02:02:28.103Z,87.16
2022-09-30T02:03:28.015Z,87.16
2022-09-30T02:04:28.024Z,86.60
2022-09-30T02:05:28.058Z,86.69
2022-09-30T02:06:28.041Z,85.93
2022-09-30T02:07:28.049Z,86.12
2022-09-30T02:08:28.074Z,86.50
2022-09-30T02:09:28.139Z,86.79
2022-09-30T02:10:28.066Z,86.88
2022-09-30T02:11:28.075Z,86.41
2022-09-30T02:12:28.082Z,86.41
2022-09-30T02:13:28.088Z,85.84
2022-09-30T02:14:28.099Z,85.55
2022-09-30T02:15:28.101Z,85.27
2022-09-30T02:16:28.177Z,84.89
2022-09-30T02:17:28.118Z,84.99
2022-09-30T02:18:28.134Z,85.46
2022-09-30T02:19:28.149Z,86.31
2022-09-30T02:20:28.139Z,86.69
2022-09-30T02:21:28.172Z,86.88
2022-09-30T02:22:28.154Z,86.88
2022-09-30T02:23:28.159Z,88.21
2022-09-30T02:24:28.170Z,90.86
2022-09-30T02:25:28.176Z,92.38
2022-09-30T02:26:28.185Z,94.08
2022-09-30T02:27:28.189Z,97.40
2022-09-30T02:28:28.303Z,95.22
2022-09-30T02:29:28.206Z,93.61
2022-09-30T02:30:28.215Z,93.23
2022-09-30T02:31:28.256Z,92.19
2022-09-30T02:32:28.227Z,91.81
2022-09-30T02:33:28.235Z,91.71
2022-09-30T02:34:28.254Z,91.24
2022-09-30T02:35:28.302Z,90.48
2022-09-30T02:36:28.253Z,90.67
2022-09-30T02:37:28.288Z,90.95
2022-09-30T02:38:28.270Z,91.24
2022-09-30T02:39:28.277Z,92.19
2022-09-30T02:40:28.287Z,92.94
2022-09-30T02:41:28.292Z,94.18
2022-09-30T02:42:28.299Z,95.31
2022-09-30T02:43:28.310Z,98.91
2022-09-30T02:44:28.315Z,99.99
2022-09-30T02:45:28.319Z,99.99
2022-09-30T02:46:28.386Z,99.99
2022-09-30T02:47:28.334Z,99.99
2022-09-30T02:48:28.342Z,99.99
2022-09-30T02:49:28.347Z,99.99
2022-09-30T02:50:28.358Z,99.99
2022-09-30T02:51:28.368Z,99.99
2022-09-30T02:52:28.374Z,99.99
2022-09-30T02:53:28.403Z,99.99
2022-09-30T02:54:28.385Z,99.96
2022-09-30T02:55:28.393Z,99.20
2022-09-30T02:56:28.409Z,98.35
2022-09-30T02:57:28.413Z,98.25
2022-09-30T02:58:28.416Z,99.01
2022-09-30T02:59:28.420Z,99.86
2022-09-30T03:00:28.477Z,99.99
2022-09-30T03:01:28.434Z,99.99
2022-09-30T03:02:28.457Z,99.99
2022-09-30T03:03:28.449Z,99.99
2022-09-30T03:04:28.460Z,99.99
2022-09-30T03:05:28.464Z,99.99
2022-09-30T03:06:28.575Z,97.97
2022-09-30T03:07:28.490Z,95.03
2022-09-30T03:08:28.503Z,93.70
2022-09-30T03:09:28.604Z,91.90
2022-09-30T03:10:28.502Z,90.39
2022-09-30T03:11:28.520Z,87.73
2022-09-30T03:12:28.518Z,85.74
2022-09-30T03:13:28.527Z,83.94
2022-09-30T03:14:28.533Z,82.52
2022-09-30T03:15:28.538Z,81.48
2022-09-30T03:16:28.576Z,80.44
2022-09-30T03:17:28.602Z,79.39
2022-09-30T03:18:28.562Z,79.45
2022-09-30T03:19:28.568Z,79.17
2022-09-30T03:20:28.573Z,78.59
2022-09-30T03:21:28.580Z,78.41
2022-09-30T03:22:28.588Z,77.84
2022-09-30T03:23:28.597Z,78.03
2022-09-30T03:24:28.607Z,77.56
2022-09-30T03:25:28.630Z,76.99
2022-09-30T03:26:28.615Z,76.99
2022-09-30T03:27:28.626Z,77.18
2022-09-30T03:28:28.633Z,77.37
2022-09-30T03:29:28.634Z,76.80
2022-09-30T03:30:28.646Z,76.51
2022-09-30T03:31:28.751Z,76.14
2022-09-30T03:32:28.658Z,76.42
2022-09-30T03:33:28.680Z,76.42
2022-09-30T03:34:28.674Z,75.89
2022-09-30T03:35:28.685Z,75.95
2022-09-30T03:36:28.687Z,76.32
2022-09-30T03:37:28.699Z,76.04
2022-09-30T03:38:28.710Z,75.76
2022-09-30T03:39:28.711Z,76.23
2022-09-30T03:40:28.717Z,75.42
2022-09-30T03:41:28.753Z,75.47
2022-09-30T03:42:28.727Z,75.51
2022-09-30T03:43:28.739Z,75.79
2022-09-30T03:44:28.743Z,74.90
2022-09-30T03:45:28.750Z,74.09
2022-09-30T03:46:28.883Z,74.18
2022-09-30T03:47:28.762Z,74.28
2022-09-30T03:48:28.769Z,74.09
2022-09-30T03:49:28.784Z,74.37
2022-09-30T03:50:28.783Z,74.18
2022-09-30T03:51:28.794Z,74.28
2022-09-30T03:52:28.801Z,74.28
2022-09-30T03:53:28.807Z,74.28
2022-09-30T03:54:28.811Z,74.18
2022-09-30T03:55:28.823Z,74.09
2022-09-30T03:56:28.837Z,74.56
2022-09-30T03:57:28.868Z,74.56
2022-09-30T03:58:28.848Z,74.62
2022-09-30T03:59:28.847Z,74.52
2022-09-30T04:00:28.906Z,74.47
2022-09-30T04:01:28.860Z,74.24
2022-09-30T04:02:28.872Z,74.47
2022-09-30T04:03:28.883Z,74.56
2022-09-30T04:04:28.897Z,74.85
2022-09-30T04:05:28.894Z,74.47
2022-09-30T04:06:28.900Z,75.04
2022-09-30T04:07:28.917Z,75.04
2022-09-30T04:08:33.006Z,75.42
2022-09-30T04:09:28.963Z,75.32
2022-09-30T04:10:28.940Z,76.17
2022-09-30T04:11:28.942Z,75.98
2022-09-30T04:12:28.949Z,76.46
2022-09-30T04:13:28.977Z,75.98
2022-09-30T04:14:29.062Z,76.55
2022-09-30T04:15:28.962Z,77.69
2022-09-30T04:16:29.050Z,78.07
2022-09-30T04:17:28.989Z,79.26
2022-09-30T04:18:28.986Z,80.96
2022-09-30T04:19:28.991Z,82.33
2022-09-30T04:20:28.999Z,84.61
2022-09-30T04:21:29.004Z,86.12
2022-09-30T04:22:29.017Z,86.41
2022-09-30T04:23:29.018Z,86.98
2022-09-30T04:24:29.025Z,87.73
2022-09-30T04:25:29.034Z,89.44
2022-09-30T04:26:29.040Z,90.39
2022-09-30T04:27:29.051Z,91.62
2022-09-30T04:28:29.054Z,93.70
2022-09-30T04:29:29.085Z,95.88
2022-09-30T04:30:33.285Z,96.55
2022-09-30T04:31:29.147Z,98.54
2022-09-30T04:32:29.083Z,99.29
2022-09-30T04:33:29.087Z,99.77
2022-09-30T04:34:29.101Z,99.86
2022-09-30T04:35:29.110Z,99.96
2022-09-30T04:36:29.110Z,99.99
2022-09-30T04:37:29.117Z,99.99
2022-09-30T04:38:29.127Z,99.99
2022-09-30T04:39:29.133Z,99.99
2022-09-30T04:40:29.141Z,99.99
2022-09-30T04:41:29.147Z,99.99
2022-09-30T04:42:29.157Z,99.99
2022-09-30T04:43:29.165Z,99.99
2022-09-30T04:44:29.177Z,99.99
2022-09-30T04:45:29.237Z,99.99
2022-09-30T04:46:29.182Z,99.99
2022-09-30T04:47:29.191Z,99.99
2022-09-30T04:48:29.199Z,99.99
2022-09-30T04:49:29.208Z,99.99
2022-09-30T04:50:29.211Z,99.99
2022-09-30T04:51:29.220Z,99.99
2022-09-30T04:52:29.228Z,99.99
2022-09-30T04:53:29.231Z,99.99
2022-09-30T04:54:29.244Z,99.99
2022-09-30T04:55:29.249Z,99.99
2022-09-30T04:56:29.252Z,99.99
2022-09-30T04:57:29.263Z,99.99
2022-09-30T04:58:33.415Z,99.99
2022-09-30T04:59:29.283Z,99.99
2022-09-30T05:00:29.307Z,99.99
2022-09-30T05:01:29.316Z,99.99
2022-09-30T05:02:29.361Z,99.99
2022-09-30T05:03:29.304Z,99.99
2022-09-30T05:04:29.313Z,99.99
2022-09-30T05:05:29.315Z,99.99
2022-09-30T05:06:29.326Z,99.99
2022-09-30T05:07:29.332Z,99.99
2022-09-30T05:08:29.342Z,99.99
2022-09-30T05:09:29.398Z,99.99
2022-09-30T05:10:29.364Z,99.99
2022-09-30T05:11:29.367Z,99.99
2022-09-30T05:12:29.372Z,99.99
2022-09-30T05:13:29.379Z,99.99
2022-09-30T05:14:29.388Z,99.99
2022-09-30T05:15:29.392Z,99.99
2022-09-30T05:16:29.436Z,99.67
2022-09-30T05:17:29.443Z,98.35
2022-09-30T05:18:29.412Z,97.49
2022-09-30T05:19:29.425Z,97.68
2022-09-30T05:20:29.426Z,98.25
2022-09-30T05:21:29.436Z,97.87
2022-09-30T05:22:29.444Z,99.01
2022-09-30T05:23:29.449Z,99.48
2022-09-30T05:24:29.455Z,99.01
2022-09-30T05:25:29.462Z,97.68
2022-09-30T05:26:29.471Z,97.30
2022-09-30T05:27:29.482Z,96.64
2022-09-30T05:28:29.484Z,97.21
2022-09-30T05:29:29.494Z,96.83
2022-09-30T05:30:29.499Z,94.93
2022-09-30T05:31:29.590Z,93.42
2022-09-30T05:32:29.513Z,91.48
2022-09-30T05:33:29.568Z,89.11
2022-09-30T05:34:29.529Z,87.31
2022-09-30T05:35:29.540Z,86.27
2022-09-30T05:36:29.546Z,84.28
2022-09-30T05:37:29.650Z,81.63
2022-09-30T05:38:29.557Z,80.30
2022-09-30T05:39:29.567Z,79.55
2022-09-30T05:40:29.572Z,79.36
2022-09-30T05:41:29.578Z,78.59
2022-09-30T05:42:29.589Z,78.50
2022-09-30T05:43:29.595Z,77.88
2022-09-30T05:44:29.598Z,78.35
2022-09-30T05:45:29.610Z,77.97
2022-09-30T05:46:29.679Z,78.07
2022-09-30T05:47:29.621Z,77.50
2022-09-30T05:48:29.628Z,77.31
2022-09-30T05:49:29.669Z,76.89
2022-09-30T05:50:29.643Z,76.99
2022-09-30T05:51:29.649Z,76.32
2022-09-30T05:52:29.658Z,76.14
2022-09-30T05:53:29.666Z,76.14
2022-09-30T05:54:29.672Z,76.08
2022-09-30T05:55:29.676Z,75.85
2022-09-30T05:56:29.688Z,76.14
2022-09-30T05:57:29.689Z,76.42
2022-09-30T05:58:29.704Z,76.42
2022-09-30T05:59:29.707Z,75.76
2022-09-30T06:00:29.714Z,75.76
2022-09-30T06:01:29.786Z,75.38
2022-09-30T06:02:29.911Z,75.57
2022-09-30T06:03:29.732Z,75.66
2022-09-30T06:04:29.742Z,75.57
2022-09-30T06:05:29.771Z,75.47
2022-09-30T06:06:29.752Z,75.47
2022-09-30T06:07:29.759Z,75.76
2022-09-30T06:08:29.765Z,75.57
2022-09-30T06:09:29.844Z,75.28
2022-09-30T06:10:29.781Z,75.66
2022-09-30T06:11:29.786Z,75.47
2022-09-30T06:12:29.804Z,75.76
2022-09-30T06:13:29.803Z,75.09
2022-09-30T06:14:29.808Z,75.00
2022-09-30T06:15:29.813Z,74.81
2022-09-30T06:16:29.931Z,74.90
2022-09-30T06:17:29.829Z,74.81
2022-09-30T06:18:29.834Z,74.90
2022-09-30T06:19:29.860Z,75.09
2022-09-30T06:20:29.847Z,75.19
2022-09-30T06:21:29.881Z,75.09
2022-09-30T06:22:29.857Z,75.09
2022-09-30T06:23:29.869Z,75.19
2022-09-30T06:24:29.874Z,75.38
2022-09-30T06:25:29.880Z,75.00
2022-09-30T06:26:29.887Z,75.09
2022-09-30T06:27:29.892Z,74.71
2022-09-30T06:28:29.903Z,74.62
2022-09-30T06:29:29.943Z,74.24
2022-09-30T06:30:34.925Z,74.52
2022-09-30T06:31:29.966Z,74.43
2022-09-30T06:32:29.931Z,74.52
2022-09-30T06:33:29.932Z,74.43
2022-09-30T06:34:29.938Z,74.24
2022-09-30T06:35:29.948Z,74.43
2022-09-30T06:36:29.951Z,74.43
2022-09-30T06:37:29.986Z,74.24
2022-09-30T06:38:29.968Z,74.05
2022-09-30T06:39:29.992Z,74.24
2022-09-30T06:40:29.979Z,73.68
2022-09-30T06:41:29.986Z,73.58
2022-09-30T06:42:29.990Z,73.77
2022-09-30T06:43:30.001Z,73.58
2022-09-30T06:44:30.015Z,73.68
2022-09-30T06:45:32.890Z,73.58
2022-09-30T06:46:31.467Z,74.05
2022-09-30T06:47:30.084Z,74.28
2022-09-30T06:48:37.409Z,73.90
2022-09-30T06:49:41.935Z,73.43
2022-09-30T06:50:30.051Z,73.61
2022-09-30T06:51:30.048Z,74.18
2022-09-30T06:52:30.061Z,74.05
2022-09-30T06:53:30.086Z,74.05
2022-09-30T06:54:30.069Z,73.68
2022-09-30T06:55:30.084Z,73.71
2022-09-30T06:56:30.083Z,73.80
2022-09-30T06:57:30.088Z,73.61
2022-09-30T06:58:30.095Z,73.49
2022-09-30T06:59:30.113Z,73.58
2022-09-30T07:00:30.115Z,73.39
2022-09-30T07:01:30.223Z,73.58
2022-09-30T07:02:30.192Z,72.92
2022-09-30T07:03:30.127Z,72.92
2022-09-30T07:04:30.232Z,72.25
2022-09-30T07:05:30.147Z,72.19
2022-09-30T07:06:30.155Z,72.48
2022-09-30T07:07:30.154Z,71.91
2022-09-30T07:08:30.161Z,71.91
2022-09-30T07:09:30.257Z,72.29
2022-09-30T07:10:30.175Z,72.19
2022-09-30T07:11:30.181Z,72.57
2022-09-30T07:12:30.191Z,72.29
2022-09-30T07:13:30.196Z,72.29
2022-09-30T07:14:30.261Z,72.38
2022-09-30T07:15:30.209Z,71.91
2022-09-30T07:16:30.268Z,72.19
2022-09-30T07:17:30.222Z,72.19
2022-09-30T07:18:30.231Z,72.19
2022-09-30T07:19:30.234Z,72.19
2022-09-30T07:20:30.243Z,72.19
2022-09-30T07:21:30.250Z,72.29
2022-09-30T07:22:30.255Z,72.29
2022-09-30T07:23:30.262Z,72.48
2022-09-30T07:24:30.370Z,72.48
2022-09-30T07:25:30.304Z,73.05
2022-09-30T07:26:30.285Z,74.28
2022-09-30T07:27:30.288Z,73.43
2022-09-30T07:28:30.297Z,72.67
2022-09-30T07:29:44.424Z,73.14
2022-09-30T07:30:30.324Z,72.48
2022-09-30T07:31:33.657Z,72.38
2022-09-30T07:32:30.381Z,72.38
2022-09-30T07:33:30.329Z,72.42
2022-09-30T07:34:30.335Z,71.85
2022-09-30T07:35:30.344Z,71.76
2022-09-30T07:36:33.158Z,71.76
2022-09-30T07:37:30.354Z,72.04
2022-09-30T07:38:30.363Z,72.04
2022-09-30T07:39:30.367Z,71.76
2022-09-30T07:40:30.375Z,72.14
2022-09-30T07:41:30.403Z,72.89
2022-09-30T07:42:30.390Z,73.75
2022-09-30T07:43:30.396Z,73.75
2022-09-30T07:44:30.402Z,73.56
2022-09-30T07:45:30.481Z,73.75
2022-09-30T07:46:30.416Z,73.37
2022-09-30T07:47:30.420Z,73.94
2022-09-30T07:48:30.432Z,74.13
2022-09-30T07:49:30.433Z,74.98
2022-09-30T07:50:30.472Z,74.88
2022-09-30T07:51:30.483Z,75.36
2022-09-30T07:52:30.470Z,75.26
2022-09-30T07:53:30.486Z,75.26
2022-09-30T07:54:30.497Z,75.45
2022-09-30T07:55:30.503Z,77.73
2022-09-30T07:56:45.614Z,79.44
2022-09-30T07:57:30.521Z,80.00
2022-09-30T07:58:30.553Z,80.76
2022-09-30T07:59:30.510Z,83.32
2022-09-30T08:00:42.263Z,85.50
2022-09-30T08:01:30.592Z,83.89
2022-09-30T08:02:30.586Z,83.61
2022-09-30T08:03:30.536Z,82.18
2022-09-30T08:04:30.545Z,81.62
2022-09-30T08:05:30.548Z,79.82
2022-09-30T08:06:30.559Z,79.47
2022-09-30T08:07:30.565Z,78.91
2022-09-30T08:08:30.676Z,78.91
2022-09-30T08:09:30.971Z,79.57
2022-09-30T08:10:30.593Z,81.94
2022-09-30T08:11:30.596Z,83.55
2022-09-30T08:12:30.605Z,87.25
2022-09-30T08:13:30.647Z,91.66
2022-09-30T08:14:30.622Z,92.33
2022-09-30T08:15:30.629Z,88.06
2022-09-30T08:16:30.667Z,87.21
2022-09-30T08:17:30.641Z,87.87
2022-09-30T08:18:30.651Z,88.63
2022-09-30T08:19:30.674Z,86.83
2022-09-30T08:20:30.668Z,85.41
2022-09-30T08:21:30.679Z,84.55
2022-09-30T08:22:30.682Z,84.08
2022-09-30T08:23:30.684Z,82.18
2022-09-30T08:24:30.698Z,80.48
2022-09-30T08:25:30.700Z,79.76
2022-09-30T08:26:30.711Z,78.81
2022-09-30T08:27:30.764Z,78.81
2022-09-30T08:28:30.726Z,78.81
2022-09-30T08:30:03.666Z,78.91
2022-09-30T08:30:30.742Z,79.57
2022-09-30T08:31:30.810Z,79.57
2022-09-30T08:32:30.752Z,80.43
2022-09-30T08:33:30.762Z,81.85
2022-09-30T08:34:30.770Z,85.36
2022-09-30T08:35:30.780Z,86.49
2022-09-30T08:36:30.796Z,87.92
2022-09-30T08:37:30.798Z,87.73
2022-09-30T08:38:30.800Z,89.06
2022-09-30T08:39:30.808Z,91.33
2022-09-30T08:40:30.818Z,88.63
2022-09-30T08:41:30.822Z,86.93
2022-09-30T08:42:40.315Z,85.50
2022-09-30T08:43:30.838Z,85.78
2022-09-30T08:44:30.848Z,84.36
2022-09-30T08:45:30.984Z,83.32
2022-09-30T08:46:30.863Z,81.94
2022-09-30T08:47:30.865Z,80.33
2022-09-30T08:48:30.878Z,80.67
2022-09-30T08:49:30.884Z,80.86
2022-09-30T08:50:30.893Z,78.67
2022-09-30T08:51:30.903Z,77.83
2022-09-30T08:52:47.720Z,77.06
2022-09-30T08:53:30.916Z,77.64
2022-09-30T08:54:30.923Z,77.64
2022-09-30T08:55:30.933Z,76.68
2022-09-30T08:56:30.940Z,76.40
2022-09-30T08:57:30.946Z,76.59
2022-09-30T08:58:31.014Z,75.74
2022-09-30T08:59:30.980Z,74.88
2022-09-30T09:00:30.978Z,75.45
2022-09-30T09:01:31.107Z,75.36
2022-09-30T09:02:31.056Z,76.87
2022-09-30T09:03:30.998Z,77.83
2022-09-30T09:04:31.038Z,78.11
2022-09-30T09:05:31.004Z,78.30
2022-09-30T09:06:31.024Z,77.54
2022-09-30T09:07:31.022Z,76.78
2022-09-30T09:08:31.032Z,76.40
2022-09-30T09:09:31.082Z,75.49
2022-09-30T09:10:31.043Z,75.40
2022-09-30T09:11:31.050Z,75.02
2022-09-30T09:12:31.085Z,75.68
2022-09-30T09:13:31.065Z,75.40
2022-09-30T09:14:31.077Z,76.54
2022-09-30T09:15:31.083Z,82.23
2022-09-30T09:16:31.160Z,81.94
2022-09-30T09:17:31.122Z,82.23
2022-09-30T09:18:31.113Z,87.45
2022-09-30T09:19:31.115Z,86.21
2022-09-30T09:20:31.117Z,85.55
2022-09-30T09:21:31.126Z,85.17
2022-09-30T09:22:31.134Z,84.88
2022-09-30T09:23:31.144Z,85.64
2022-09-30T09:24:31.148Z,86.21
2022-09-30T09:25:31.158Z,85.55
2022-09-30T09:26:31.169Z,83.65
2022-09-30T09:28:31.277Z,82.42
2022-09-30T09:29:31.193Z,81.94
2022-09-30T09:30:31.199Z,81.79
2022-09-30T09:31:31.268Z,82.27
2022-09-30T09:32:31.213Z,83.78
2022-09-30T09:33:31.246Z,97.45
2022-09-30T09:34:31.227Z,99.99
2022-09-30T09:35:31.240Z,99.99
2022-09-30T09:36:31.245Z,99.99
2022-09-30T09:37:31.250Z,99.99
2022-09-30T09:38:31.259Z,99.99
2022-09-30T09:39:31.269Z,98.25
2022-09-30T09:40:31.276Z,94.42
2022-09-30T09:41:31.284Z,91.66
2022-09-30T09:42:31.334Z,90.71
2022-09-30T09:43:31.298Z,96.41
2022-09-30T09:44:31.315Z,95.12
2022-09-30T09:45:31.431Z,99.99
2022-09-30T09:46:31.326Z,99.99
2022-09-30T09:47:31.331Z,99.99
2022-09-30T09:48:31.341Z,99.97
2022-09-30T09:49:31.374Z,99.99
2022-09-30T09:50:31.361Z,99.99
2022-09-30T09:51:31.379Z,99.99
2022-09-30T09:52:31.374Z,99.99
2022-09-30T09:53:31.379Z,99.99
2022-09-30T09:54:31.392Z,99.99
2022-09-30T09:55:31.401Z,99.99
2022-09-30T09:56:32.685Z,99.99
2022-09-30T09:57:31.418Z,99.99
2022-09-30T09:58:31.426Z,99.99
2022-09-30T09:59:31.435Z,99.99
2022-09-30T10:00:31.444Z,99.99
2022-09-30T10:01:31.492Z,98.97
2022-09-30T10:02:31.572Z,98.30
2022-09-30T10:03:31.465Z,94.51
2022-09-30T10:04:31.472Z,91.09
2022-09-30T10:05:31.510Z,95.69
2022-09-30T10:06:31.497Z,90.48
2022-09-30T10:07:31.504Z,89.25
2022-09-30T10:08:31.511Z,85.26
2022-09-30T10:09:31.533Z,87.06
2022-09-30T10:10:31.526Z,86.21
2022-09-30T10:11:31.532Z,82.89
2022-09-30T10:12:31.542Z,82.65
2022-09-30T10:13:31.551Z,84.07
2022-09-30T10:14:31.563Z,90.00
2022-09-30T10:15:31.566Z,90.29
2022-09-30T10:16:31.577Z,88.68
2022-09-30T10:17:31.582Z,84.83
2022-09-30T10:18:31.594Z,83.31
2022-09-30T10:19:31.603Z,84.17
2022-09-30T10:20:31.604Z,87.01
2022-09-30T10:21:31.656Z,91.38
2022-09-30T10:22:31.625Z,92.04
2022-09-30T10:23:31.633Z,91.66
2022-09-30T10:24:31.652Z,95.12
2022-09-30T10:25:31.648Z,99.99
2022-09-30T10:26:31.664Z,99.99
2022-09-30T10:27:31.663Z,99.99
2022-09-30T10:28:31.807Z,99.02
2022-09-30T10:29:31.683Z,99.99
2022-09-30T10:30:31.692Z,99.99
2022-09-30T10:31:31.769Z,99.99
2022-09-30T10:32:31.712Z,99.99
2022-09-30T10:33:31.718Z,99.91
2022-09-30T10:34:31.728Z,99.99
2022-09-30T10:35:31.735Z,93.37
2022-09-30T10:36:31.743Z,92.71
2022-09-30T10:37:31.846Z,93.84
2022-09-30T10:38:31.831Z,94.89
2022-09-30T10:39:31.777Z,95.17
2022-09-30T10:40:31.799Z,96.88
2022-09-30T10:41:31.787Z,95.93
2022-09-30T10:42:31.808Z,98.30
2022-09-30T10:43:31.801Z,96.74
2022-09-30T10:44:31.811Z,99.99
2022-09-30T10:45:31.894Z,99.99
2022-09-30T10:46:31.935Z,99.99
2022-09-30T10:47:36.690Z,96.31
2022-09-30T10:48:31.844Z,93.65
2022-09-30T10:49:31.853Z,98.87
2022-09-30T10:50:31.862Z,99.99
2022-09-30T10:51:31.874Z,99.99
2022-09-30T10:52:31.873Z,99.99
2022-09-30T10:53:31.931Z,99.99
2022-09-30T10:54:31.895Z,99.99
2022-09-30T10:55:31.938Z,99.99
2022-09-30T10:56:31.915Z,99.99
2022-09-30T10:57:31.919Z,99.99
2022-09-30T10:58:31.926Z,99.99
2022-09-30T10:59:31.936Z,99.99
2022-09-30T11:00:31.944Z,99.99
2022-09-30T11:01:32.000Z,99.99
2022-09-30T11:02:31.966Z,99.99
2022-09-30T11:03:32.009Z,99.99
2022-09-30T11:04:31.975Z,99.99
2022-09-30T11:05:31.994Z,99.99
2022-09-30T11:06:31.997Z,99.99
2022-09-30T11:07:32.009Z,99.99
2022-09-30T11:08:32.018Z,99.99
2022-09-30T11:09:32.050Z,99.99
2022-09-30T11:10:32.031Z,99.99
2022-09-30T11:11:32.044Z,99.99
2022-09-30T11:12:32.043Z,99.63
2022-09-30T11:13:32.055Z,99.99
2022-09-30T11:14:32.061Z,99.99
2022-09-30T11:15:32.073Z,99.99
2022-09-30T11:16:32.350Z,99.99
2022-09-30T11:17:32.092Z,99.99
2022-09-30T11:18:32.103Z,99.99
2022-09-30T11:19:32.104Z,99.99
2022-09-30T11:20:32.116Z,99.99
2022-09-30T11:21:32.125Z,99.99
2022-09-30T11:22:32.130Z,99.99
2022-09-30T11:23:32.137Z,99.99
2022-09-30T11:24:32.166Z,99.99
2022-09-30T11:25:32.179Z,99.99
2022-09-30T11:26:32.184Z,99.99
2022-09-30T11:27:32.175Z,99.99
2022-09-30T11:28:32.282Z,99.99
2022-09-30T11:29:32.191Z,99.99
2022-09-30T11:30:32.196Z,99.99
2022-09-30T11:31:32.272Z,99.99
2022-09-30T11:32:32.212Z,99.99
2022-09-30T11:33:32.224Z,99.99
2022-09-30T11:34:32.293Z,99.99
2022-09-30T11:35:32.244Z,99.99
2022-09-30T11:36:32.248Z,99.99
2022-09-30T11:37:32.257Z,99.99
2022-09-30T11:38:32.271Z,99.99
2022-09-30T11:39:32.274Z,99.99
2022-09-30T11:40:32.317Z,99.99
2022-09-30T11:41:32.324Z,99.99
2022-09-30T11:42:32.302Z,99.99
2022-09-30T11:43:32.318Z,99.99
2022-09-30T11:44:32.316Z,99.99
2022-09-30T11:45:32.425Z,99.99
2022-09-30T11:46:32.333Z,99.99
2022-09-30T11:47:32.347Z,99.99
2022-09-30T11:48:33.057Z,99.99
2022-09-30T11:49:32.363Z,99.99
2022-09-30T11:50:32.373Z,99.99
2022-09-30T11:51:32.382Z,99.99
2022-09-30T11:52:32.391Z,99.99
2022-09-30T11:53:32.401Z,97.88
2022-09-30T11:54:32.508Z,95.41
2022-09-30T11:55:32.416Z,93.84
2022-09-30T11:56:32.424Z,89.24
2022-09-30T11:57:32.453Z,89.24
2022-09-30T11:58:47.822Z,98.59
2022-09-30T11:59:32.451Z,97.36
2022-09-30T12:00:32.459Z,94.18
2022-09-30T12:01:32.465Z,96.74
2022-09-30T12:02:32.486Z,97.60
2022-09-30T12:03:32.541Z,99.99
2022-09-30T12:04:32.491Z,99.99
2022-09-30T12:05:32.515Z,99.44
2022-09-30T12:06:32.688Z,99.99
2022-09-30T12:07:32.517Z,99.99
2022-09-30T12:08:32.528Z,99.99
2022-09-30T12:09:32.535Z,99.99
2022-09-30T12:10:32.548Z,99.99
2022-09-30T12:11:32.556Z,99.99
2022-09-30T12:12:32.564Z,99.99
2022-09-30T12:13:32.598Z,99.99
2022-09-30T12:14:32.584Z,99.99
2022-09-30T12:15:32.590Z,99.99
2022-09-30T12:16:33.178Z,99.99
2022-09-30T12:17:32.622Z,99.99
2022-09-30T12:18:32.615Z,99.99
2022-09-30T12:19:32.629Z,99.99
2022-09-30T12:20:32.637Z,99.99
2022-09-30T12:21:32.642Z,99.99
2022-09-30T12:22:32.650Z,99.99
2022-09-30T12:23:32.665Z,99.99
2022-09-30T12:24:32.672Z,99.99
2022-09-30T12:25:32.680Z,99.99
2022-09-30T12:26:32.704Z,99.99
2022-09-30T12:27:32.697Z,99.99
2022-09-30T12:28:32.706Z,99.99
2022-09-30T12:29:32.800Z,99.99
2022-09-30T12:30:32.727Z,99.99
2022-09-30T12:31:32.789Z,99.99
2022-09-30T12:32:32.743Z,99.99
2022-09-30T12:33:32.752Z,99.99
2022-09-30T12:34:32.765Z,99.99
2022-09-30T12:35:32.769Z,99.99
2022-09-30T12:36:32.859Z,99.99
2022-09-30T12:37:32.789Z,99.99
2022-09-30T12:38:32.793Z,99.99
2022-09-30T12:39:32.810Z,99.99
2022-09-30T12:40:32.818Z,99.99
2022-09-30T12:41:32.802Z,99.99
2022-09-30T12:42:32.833Z,99.99
2022-09-30T12:43:32.836Z,99.99
2022-09-30T12:44:32.849Z,99.99
2022-09-30T12:45:32.965Z,99.99
2022-09-30T12:46:33.002Z,99.99
2022-09-30T12:47:32.881Z,99.99
2022-09-30T12:48:32.889Z,99.99
2022-09-30T12:49:32.895Z,99.99
2022-09-30T12:50:32.903Z,99.99
2022-09-30T12:51:32.918Z,99.99
2022-09-30T12:52:32.921Z,99.99
2022-09-30T12:53:32.934Z,99.99